createdAt,value
2023-03-17T00:01:54.985Z,102417.97
2023-03-17T00:05:01.892Z,102429.88
2023-03-17T00:08:12.599Z,102415.22
2023-03-17T00:11:18.688Z,102424.75
2023-03-17T00:14:23.815Z,102423.84
2023-03-17T00:17:29.283Z,102422.94
2023-03-17T00:20:35.787Z,102421.81
2023-03-17T00:23:41.026Z,102430.31
2023-03-17T00:26:46.259Z,102420.47
2023-03-17T00:29:51.869Z,102422.41
2023-03-17T00:32:59.102Z,102425.06
2023-03-17T00:36:06.714Z,102423.00
2023-03-17T00:42:20.319Z,102431.59
2023-03-17T00:45:27.188Z,102426.63
2023-03-17T00:48:32.666Z,102420.41
2023-03-17T00:51:39.473Z,102416.47
2023-03-17T00:54:44.626Z,102414.06
2023-03-17T00:57:50.654Z,102416.66
2023-03-17T01:00:56.299Z,102409.66
2023-03-17T01:04:01.950Z,102399.72
2023-03-17T01:07:11.252Z,102409.72
2023-03-17T01:10:19.934Z,102405.19
2023-03-17T01:13:25.401Z,102396.97
2023-03-17T01:16:30.925Z,102398.56
2023-03-17T01:19:37.536Z,102393.91
2023-03-17T01:22:44.033Z,102406.41
2023-03-17T01:25:49.257Z,102382.22
2023-03-17T01:28:54.903Z,102383.69
2023-03-17T01:32:00.338Z,102381.78
2023-03-17T01:35:06.883Z,102376.38
2023-03-17T01:38:14.205Z,102376.28
2023-03-17T01:41:20.822Z,102362.75
2023-03-17T01:44:27.540Z,102371.59
2023-03-17T01:47:32.794Z,102363.38
2023-03-17T01:50:38.478Z,102365.44
2023-03-17T01:53:47.524Z,102363.38
2023-03-17T01:56:53.563Z,102365.09
2023-03-17T02:00:01.694Z,102352.28
2023-03-17T02:03:07.229Z,102348.63
2023-03-17T02:06:12.421Z,102351.03
2023-03-17T02:09:18.962Z,102345.41
2023-03-17T02:12:24.730Z,102338.66
2023-03-17T02:15:39.255Z,102348.31
2023-03-17T02:18:44.982Z,102332.22
2023-03-17T02:21:55.951Z,102332.63
2023-03-17T02:25:01.758Z,102328.56
2023-03-17T02:28:10.914Z,102326.59
2023-03-17T02:31:16.715Z,102315.91
2023-03-17T02:34:21.977Z,102314.59
2023-03-17T02:37:31.138Z,102315.41
2023-03-17T02:40:37.842Z,102309.22
2023-03-17T02:43:43.191Z,102310.16
2023-03-17T02:46:48.297Z,102313.91
2023-03-17T02:49:53.559Z,102311.91
2023-03-17T02:53:00.316Z,102317.41
2023-03-17T02:56:05.660Z,102315.63
2023-03-17T02:59:11.904Z,102310.56
2023-03-17T03:02:17.444Z,102311.75
2023-03-17T03:05:22.631Z,102310.53
2023-03-17T03:08:29.306Z,102297.91
2023-03-17T03:11:34.419Z,102302.72
2023-03-17T03:14:39.862Z,102297.78
2023-03-17T03:17:44.905Z,102296.66
2023-03-17T03:20:49.984Z,102289.97
2023-03-17T03:23:56.482Z,102290.94
2023-03-17T03:27:01.713Z,102279.78
2023-03-17T03:30:08.516Z,102280.47
2023-03-17T03:33:15.379Z,102286.88
2023-03-17T03:36:20.581Z,102286.94
2023-03-17T03:39:27.245Z,102288.78
2023-03-17T03:42:32.278Z,102279.50
2023-03-17T03:45:37.680Z,102285.44
2023-03-17T03:48:42.773Z,102275.44
2023-03-17T03:51:47.989Z,102274.41
2023-03-17T03:54:54.895Z,102275.09
2023-03-17T03:57:59.983Z,102256.16
2023-03-17T04:01:06.494Z,102261.44
2023-03-17T04:04:13.639Z,102258.47
2023-03-17T04:07:18.682Z,102256.75
2023-03-17T04:10:25.136Z,102254.34
2023-03-17T04:13:30.195Z,102261.66
2023-03-17T04:16:35.358Z,102262.06
2023-03-17T04:19:41.015Z,102267.09
2023-03-17T04:22:46.706Z,102264.28
2023-03-17T04:25:54.316Z,102261.19
2023-03-17T04:28:59.897Z,102245.19
2023-03-17T04:32:05.586Z,102247.78
2023-03-17T04:35:14.649Z,102239.47
2023-03-17T04:38:19.727Z,102234.00
2023-03-17T04:41:26.522Z,102233.66
2023-03-17T04:44:32.178Z,102224.16
2023-03-17T04:47:37.402Z,102217.25
2023-03-17T04:50:42.970Z,102202.63
2023-03-17T04:53:48.097Z,102207.41
2023-03-17T04:56:55.332Z,102197.72
2023-03-17T05:00:00.415Z,102202.94
2023-03-17T05:03:20.024Z,102195.63
2023-03-17T05:06:31.581Z,102200.56
2023-03-17T05:09:37.129Z,102204.63
2023-03-17T05:12:46.394Z,102199.53
2023-03-17T05:15:52.483Z,102200.66
2023-03-17T05:18:57.577Z,102217.16
2023-03-17T05:22:02.653Z,102210.19
2023-03-17T05:25:08.352Z,102204.72
2023-03-17T05:28:32.602Z,102206.00
2023-03-17T05:31:37.784Z,102201.28
2023-03-17T05:34:43.231Z,102195.59
2023-03-17T05:37:48.331Z,102197.50
2023-03-17T05:40:53.859Z,102192.38
2023-03-17T05:44:00.495Z,102194.22
2023-03-17T05:47:05.721Z,102195.00
2023-03-17T05:50:14.092Z,102194.44
2023-03-17T05:53:19.326Z,102186.78
2023-03-17T05:56:24.974Z,102188.09
2023-03-17T05:59:32.536Z,102186.91
2023-03-17T06:02:38.169Z,102202.03
2023-03-17T06:05:43.402Z,102188.19
2023-03-17T06:08:48.521Z,102188.38
2023-03-17T06:11:53.606Z,102185.66
2023-03-17T06:15:00.125Z,102186.75
2023-03-17T06:18:06.638Z,102187.25
2023-03-17T06:21:12.252Z,102194.09
2023-03-17T06:24:17.445Z,102191.00
2023-03-17T06:27:22.780Z,102199.38
2023-03-17T06:30:29.556Z,102192.34
2023-03-17T06:33:34.796Z,102201.31
2023-03-17T06:36:41.519Z,102210.63
2023-03-17T06:39:48.168Z,102198.06
2023-03-17T06:42:53.356Z,102208.19
2023-03-17T06:45:59.897Z,102199.22
2023-03-17T06:49:05.459Z,102192.59
2023-03-17T06:52:13.518Z,102194.97
2023-03-17T06:55:19.405Z,102206.47
2023-03-17T06:58:24.954Z,102200.88
2023-03-17T07:01:32.196Z,102204.16
2023-03-17T07:04:38.349Z,102201.81
2023-03-17T07:07:43.767Z,102194.00
2023-03-17T07:10:49.350Z,102198.22
2023-03-17T07:13:54.488Z,102196.69
2023-03-17T07:17:01.133Z,102196.47
2023-03-17T07:20:07.419Z,102184.72
2023-03-17T07:23:17.834Z,102182.84
2023-03-17T07:26:23.041Z,102207.09
2023-03-17T07:29:29.333Z,102200.84
2023-03-17T07:32:36.838Z,102207.84
2023-03-17T07:35:43.835Z,102209.72
2023-03-17T07:38:48.920Z,102204.69
2023-03-17T07:41:55.414Z,102203.75
2023-03-17T07:45:00.756Z,102199.31
2023-03-17T07:48:08.543Z,102200.19
2023-03-17T07:51:15.650Z,102195.97
2023-03-17T07:54:21.251Z,102186.72
2023-03-17T07:57:27.252Z,102192.66
2023-03-17T08:00:32.785Z,102190.88
2023-03-17T08:03:41.449Z,102188.91
2023-03-17T08:06:47.781Z,102185.81
2023-03-17T08:09:53.058Z,102193.25
2023-03-17T08:12:58.279Z,102192.38
2023-03-17T08:16:03.300Z,102191.84
2023-03-17T08:19:10.979Z,102192.66
2023-03-17T08:22:16.151Z,102194.88
2023-03-17T08:25:21.915Z,102189.97
2023-03-17T08:28:27.262Z,102194.72
2023-03-17T08:31:34.006Z,102191.31
2023-03-17T08:34:40.817Z,102187.72
2023-03-17T08:37:46.284Z,102160.06
2023-03-17T08:40:52.293Z,102156.81
2023-03-17T08:43:58.680Z,102145.41
2023-03-17T08:47:03.799Z,102148.97
2023-03-17T08:50:16.666Z,102155.41
2023-03-17T08:53:22.098Z,102149.75
2023-03-17T08:56:27.290Z,102152.69
2023-03-17T08:59:32.848Z,102150.41
2023-03-17T09:02:38.215Z,102156.31
2023-03-17T09:05:45.481Z,102152.69
2023-03-17T09:08:55.404Z,102158.66
2023-03-17T09:12:00.717Z,102147.69
2023-03-17T09:15:06.424Z,102148.00
2023-03-17T09:18:12.997Z,102146.94
2023-03-17T09:21:19.741Z,102131.84
2023-03-17T09:24:24.885Z,102122.09
2023-03-17T09:27:30.224Z,102125.13
2023-03-17T09:30:35.511Z,102120.34
2023-03-17T09:33:40.832Z,102119.69
2023-03-17T09:36:47.358Z,102107.16
2023-03-17T09:39:52.754Z,102105.75
2023-03-17T09:43:06.113Z,102108.56
2023-03-17T09:46:25.817Z,102111.59
2023-03-17T09:49:39.208Z,102122.38
2023-03-17T09:52:46.172Z,102107.75
2023-03-17T09:55:56.539Z,102102.19
2023-03-17T09:59:05.203Z,102098.59
2023-03-17T10:02:18.695Z,102086.34
2023-03-17T10:05:27.566Z,102082.84
2023-03-17T10:08:46.076Z,102076.53
2023-03-17T10:11:54.980Z,102068.09
2023-03-17T10:15:02.788Z,102083.19
2023-03-17T10:18:12.724Z,102076.75
2023-03-17T10:21:20.477Z,102072.44
2023-03-17T10:24:27.266Z,102079.13
2023-03-17T10:27:35.482Z,102062.22
2023-03-17T10:30:40.661Z,102055.38
2023-03-17T10:33:48.454Z,102043.28
2023-03-17T10:36:57.258Z,102049.50
2023-03-17T10:40:10.377Z,102035.16
2023-03-17T10:43:20.702Z,102021.63
2023-03-17T10:46:30.020Z,102036.84
2023-03-17T10:49:38.033Z,102033.50
2023-03-17T10:52:43.294Z,102030.75
2023-03-17T10:55:53.286Z,102040.69
2023-03-17T10:58:59.259Z,102033.00
2023-03-17T11:02:15.276Z,102029.53
2023-03-17T11:05:22.251Z,102012.88
2023-03-17T11:08:31.592Z,102025.66
2023-03-17T11:11:46.444Z,102017.94
2023-03-17T11:14:51.613Z,102011.91
2023-03-17T11:17:59.701Z,102003.50
2023-03-17T11:21:07.714Z,101997.47
2023-03-17T11:24:15.853Z,101989.13
2023-03-17T11:27:30.279Z,101980.66
2023-03-17T11:30:37.604Z,101977.53
2023-03-17T11:33:48.610Z,101968.19
2023-03-17T11:37:00.095Z,101969.97
2023-03-17T11:40:14.646Z,101964.09
2023-03-17T11:43:29.709Z,101961.41
2023-03-17T11:46:39.039Z,101965.88
2023-03-17T11:49:45.726Z,101954.78
2023-03-17T11:53:00.303Z,101945.53
2023-03-17T11:56:08.341Z,101932.00
2023-03-17T11:59:27.116Z,101932.91
2023-03-17T12:02:38.207Z,101936.31
2023-03-17T12:05:43.330Z,101918.00
2023-03-17T12:08:53.399Z,101923.59
2023-03-17T12:11:59.580Z,101927.00
2023-03-17T12:15:09.303Z,101910.13
2023-03-17T12:18:17.797Z,101872.06
2023-03-17T12:21:27.166Z,101859.50
2023-03-17T12:24:36.637Z,101860.13
2023-03-17T12:27:46.084Z,101856.03
2023-03-17T12:30:55.789Z,101838.22
2023-03-17T12:34:06.623Z,101848.59
2023-03-17T12:37:14.377Z,101839.22
2023-03-17T12:40:25.216Z,101829.75
2023-03-17T12:43:38.403Z,101823.00
2023-03-17T12:46:54.010Z,101818.75
2023-03-17T12:50:29.968Z,101814.44
2023-03-17T12:53:35.845Z,101799.47
2023-03-17T12:56:46.534Z,101792.63
2023-03-17T12:59:57.882Z,101775.69
2023-03-17T13:03:18.301Z,101778.88
2023-03-17T13:06:24.724Z,101781.66
2023-03-17T13:09:48.475Z,101781.75
2023-03-17T13:13:21.560Z,101759.72
2023-03-17T13:16:33.599Z,101771.38
2023-03-17T13:19:48.988Z,101786.63
2023-03-17T13:23:05.076Z,101779.19
2023-03-17T13:26:20.176Z,101787.63
2023-03-17T13:29:27.881Z,101781.22
2023-03-17T13:32:40.293Z,101771.13
2023-03-17T13:35:52.688Z,101781.13
2023-03-17T13:39:42.561Z,101771.94
2023-03-17T13:43:10.030Z,101764.22
2023-03-17T13:46:22.833Z,101759.97
2023-03-17T13:49:32.250Z,101761.81
2023-03-17T13:52:42.697Z,101769.34
2023-03-17T13:56:07.784Z,101766.69
2023-03-17T13:59:16.953Z,101764.53
2023-03-17T14:02:24.198Z,101749.88
2023-03-17T14:05:31.348Z,101744.81
2023-03-17T14:08:39.881Z,101744.88
2023-03-17T14:11:47.684Z,101739.44
2023-03-17T14:14:56.875Z,101746.38
2023-03-17T14:18:08.881Z,101736.78
2023-03-17T14:21:23.502Z,101731.09
2023-03-17T14:24:33.389Z,101719.94
2023-03-17T14:27:39.244Z,101724.34
2023-03-17T14:30:53.344Z,101713.16
2023-03-17T14:33:59.834Z,101700.75
2023-03-17T14:37:06.466Z,101691.22
2023-03-17T14:40:28.153Z,101686.88
2023-03-17T14:43:33.917Z,101688.66
2023-03-17T14:46:41.193Z,101703.66
2023-03-17T14:49:46.700Z,101686.97
2023-03-17T14:52:52.348Z,101689.59
2023-03-17T14:55:59.505Z,101682.66
2023-03-17T14:59:09.461Z,101673.25
2023-03-17T15:02:22.513Z,101665.78
2023-03-17T15:05:30.816Z,101660.81
2023-03-17T15:08:46.179Z,101647.22
2023-03-17T15:11:54.041Z,101641.19
2023-03-17T15:15:02.061Z,101643.13
2023-03-17T15:18:12.092Z,101658.84
2023-03-17T15:21:34.109Z,101630.38
2023-03-17T15:24:40.950Z,101629.56
2023-03-17T15:27:48.126Z,101628.53
2023-03-17T15:30:55.446Z,101627.66
2023-03-17T15:34:00.825Z,101625.25
2023-03-17T15:37:08.083Z,101631.91
2023-03-17T15:40:15.755Z,101639.41
2023-03-17T15:43:22.821Z,101630.09
2023-03-17T15:46:31.170Z,101626.09
2023-03-17T15:49:36.442Z,101609.88
2023-03-17T15:52:41.629Z,101615.72
2023-03-17T15:55:47.316Z,101599.88
2023-03-17T15:58:54.136Z,101603.03
2023-03-17T16:01:59.489Z,101596.47
2023-03-17T16:05:09.745Z,101585.72
2023-03-17T16:08:16.087Z,101589.72
2023-03-17T16:11:28.187Z,101572.75
2023-03-17T16:14:35.096Z,101563.44
2023-03-17T16:17:41.228Z,101578.63
2023-03-17T16:20:47.805Z,101565.91
2023-03-17T16:23:52.982Z,101576.94
2023-03-17T16:26:58.260Z,101573.63
2023-03-17T16:30:04.815Z,101577.84
2023-03-17T16:33:18.445Z,101560.97
2023-03-17T16:36:24.862Z,101575.28
2023-03-17T16:39:32.263Z,101576.13
2023-03-17T16:42:37.315Z,101563.53
2023-03-17T16:45:43.970Z,101568.78
2023-03-17T16:48:49.677Z,101582.00
2023-03-17T16:51:54.872Z,101587.13
2023-03-17T16:55:00.172Z,101582.91
2023-03-17T16:58:08.658Z,101562.78
2023-03-17T17:01:19.664Z,101554.38
2023-03-17T17:04:25.279Z,101553.47
2023-03-17T17:07:30.675Z,101539.13
2023-03-17T17:10:37.119Z,101562.63
2023-03-17T17:13:42.696Z,101557.66
2023-03-17T17:16:49.281Z,101542.53
2023-03-17T17:19:54.446Z,101543.41
2023-03-17T17:22:59.831Z,101552.59
2023-03-17T17:26:04.973Z,101552.59
2023-03-17T17:29:10.269Z,101551.72
2023-03-17T17:32:19.311Z,101561.06
2023-03-17T17:35:24.792Z,101562.88
2023-03-17T17:38:31.091Z,101562.03
2023-03-17T17:41:36.327Z,101557.84
2023-03-17T17:44:42.889Z,101547.72
2023-03-17T17:47:49.307Z,101539.91
2023-03-17T17:50:56.159Z,101525.63
2023-03-17T17:54:01.332Z,101534.16
2023-03-17T17:57:07.162Z,101532.47
2023-03-17T18:00:17.229Z,101532.41
2023-03-17T18:03:25.365Z,101532.50
2023-03-17T18:06:30.584Z,101545.16
2023-03-17T18:09:35.735Z,101538.31
2023-03-17T18:12:40.764Z,101551.09
2023-03-17T18:15:46.115Z,101545.28
2023-03-17T18:18:52.878Z,101540.22
2023-03-17T18:21:57.973Z,101542.63
2023-03-17T18:25:03.222Z,101552.09
2023-03-17T18:28:08.461Z,101541.19
2023-03-17T18:31:15.602Z,101533.44
2023-03-17T18:34:24.658Z,101531.81
2023-03-17T18:37:29.901Z,101528.38
2023-03-17T18:40:35.385Z,101518.25
2023-03-17T18:43:44.783Z,101509.00
2023-03-17T18:46:49.946Z,101513.28
2023-03-17T18:49:57.066Z,101514.16
2023-03-17T18:53:02.511Z,101500.63
2023-03-17T18:56:08.523Z,101493.16
2023-03-17T18:59:13.775Z,101498.97
2023-03-17T19:02:18.909Z,101503.16
2023-03-17T19:05:25.698Z,101483.81
2023-03-17T19:08:31.240Z,101483.91
2023-03-17T19:11:36.462Z,101476.31
2023-03-17T19:14:41.833Z,101477.09
2023-03-17T19:17:47.060Z,101478.00
2023-03-17T19:20:54.378Z,101471.28
2023-03-17T19:24:01.055Z,101467.03
2023-03-17T19:27:06.520Z,101457.75
2023-03-17T19:30:13.887Z,101454.38
2023-03-17T19:33:19.788Z,101452.72
2023-03-17T19:36:28.362Z,101451.13
2023-03-17T19:39:34.069Z,101455.34
2023-03-17T19:42:39.169Z,101452.00
2023-03-17T19:45:44.625Z,101435.09
2023-03-17T19:48:49.737Z,101456.22
2023-03-17T19:51:56.558Z,101448.66
2023-03-17T19:55:01.602Z,101440.16
2023-03-17T19:58:08.294Z,101429.25
2023-03-17T20:01:15.175Z,101426.72
2023-03-17T20:04:22.206Z,101433.47
2023-03-17T20:07:28.985Z,101425.09
2023-03-17T20:10:34.263Z,101426.69
2023-03-17T20:13:39.372Z,101419.97
2023-03-17T20:16:44.433Z,101404.88
2023-03-17T20:19:49.621Z,101416.72
2023-03-17T20:22:56.360Z,101415.84
2023-03-17T20:26:01.485Z,101407.41
2023-03-17T20:29:06.767Z,101399.88
2023-03-17T20:32:14.864Z,101406.59
2023-03-17T20:35:21.018Z,101406.56
2023-03-17T20:38:28.308Z,101390.53
2023-03-17T20:41:33.490Z,101392.25
2023-03-17T20:44:38.831Z,101384.66
2023-03-17T20:47:44.011Z,101375.47
2023-03-17T20:50:50.999Z,101386.38
2023-03-17T20:53:57.485Z,101382.19
2023-03-17T20:57:02.599Z,101365.34
2023-03-17T21:00:10.534Z,101368.72
2023-03-17T21:03:15.580Z,101345.09
2023-03-17T21:06:21.185Z,101351.88
2023-03-17T21:09:28.423Z,101340.94
2023-03-17T21:12:33.641Z,101344.25
2023-03-17T21:15:38.769Z,101333.31
2023-03-17T21:18:43.959Z,101332.47
2023-03-17T21:21:49.194Z,101329.06
2023-03-17T21:24:55.826Z,101327.41
2023-03-17T21:28:01.667Z,101324.00
2023-03-17T21:31:07.314Z,101309.72
2023-03-17T21:34:13.828Z,101305.50
2023-03-17T21:37:18.960Z,101290.28
2023-03-17T21:40:27.548Z,101284.41
2023-03-17T21:43:33.034Z,101281.88
2023-03-17T21:46:38.236Z,101292.00
2023-03-17T21:49:43.407Z,101281.06
2023-03-17T21:52:48.833Z,101284.41
2023-03-17T21:55:55.281Z,101284.44
2023-03-17T21:59:00.459Z,101292.00
2023-03-17T22:02:05.637Z,101274.28
2023-03-17T22:05:11.705Z,101281.06
2023-03-17T22:08:16.833Z,101275.13
2023-03-17T22:11:23.451Z,101271.78
2023-03-17T22:14:28.574Z,101257.44
2023-03-17T22:17:33.802Z,101266.72
2023-03-17T22:20:38.990Z,101260.78
2023-03-17T22:23:44.457Z,101265.03
2023-03-17T22:26:51.122Z,101257.44
2023-03-17T22:29:56.596Z,101244.78
2023-03-17T22:33:02.022Z,101250.69
2023-03-17T22:36:07.666Z,101251.53
2023-03-17T22:39:12.769Z,101249.84
2023-03-17T22:42:19.758Z,101247.31
2023-03-17T22:45:25.038Z,101251.53
2023-03-17T22:48:32.354Z,101240.59
2023-03-17T22:51:37.832Z,101241.41
2023-03-17T22:54:42.983Z,101236.38
2023-03-17T22:57:49.497Z,101230.47
2023-03-17T23:00:55.463Z,101239.75
2023-03-17T23:04:01.115Z,101231.28
2023-03-17T23:07:06.754Z,101238.03
2023-03-17T23:10:17.605Z,101225.38
2023-03-17T23:13:25.345Z,101224.53
2023-03-17T23:16:31.266Z,101227.09
2023-03-17T23:19:36.400Z,101217.78
2023-03-17T23:22:41.632Z,101214.41
2023-03-17T23:25:47.093Z,101217.78
2023-03-17T23:28:53.839Z,101219.47
2023-03-17T23:31:59.585Z,101201.75
2023-03-17T23:35:05.310Z,101200.06
2023-03-17T23:38:13.656Z,101207.69
2023-03-17T23:41:18.843Z,101203.44
2023-03-17T23:44:26.022Z,101206.81
2023-03-17T23:47:31.533Z,101199.22
2023-03-17T23:50:37.228Z,101203.44
2023-03-17T23:53:43.019Z,101186.53
2023-03-17T23:56:48.231Z,101185.69
2023-03-17T23:59:54.678Z,101182.34
